createdAt,value
2022-12-06T00:00:45.833Z,59.30
2022-12-06T00:03:15.931Z,59.20
2022-12-06T00:05:46.502Z,59.20
2022-12-06T00:08:16.578Z,58.90
2022-12-06T00:10:47.192Z,59.10
2022-12-06T00:13:17.418Z,59.00
2022-12-06T00:15:47.451Z,58.80
2022-12-06T00:18:17.539Z,59.00
2022-12-06T00:20:47.663Z,59.00
2022-12-06T00:23:17.463Z,58.80
2022-12-06T00:25:47.446Z,58.70
2022-12-06T00:28:18.277Z,59.00
2022-12-06T00:30:48.016Z,59.00
2022-12-06T00:33:38.784Z,58.90
2022-12-06T00:36:17.377Z,59.10
2022-12-06T00:38:47.816Z,58.90
2022-12-06T00:41:21.481Z,59.00
2022-12-06T00:43:51.411Z,58.70
2022-12-06T00:46:26.676Z,58.70
2022-12-06T00:48:57.306Z,58.60
2022-12-06T00:51:31.829Z,58.50
2022-12-06T00:54:01.846Z,58.50
2022-12-06T00:56:32.038Z,58.50
2022-12-06T00:59:01.838Z,58.50
2022-12-06T01:01:34.432Z,58.40
2022-12-06T01:04:05.659Z,58.60
2022-12-06T01:06:36.596Z,58.30
2022-12-06T01:09:09.016Z,58.10
2022-12-06T01:11:39.404Z,58.10
2022-12-06T01:14:09.188Z,58.70
2022-12-06T01:16:38.770Z,60.60
2022-12-06T01:19:09.104Z,60.40
2022-12-06T01:21:39.291Z,60.80
2022-12-06T01:24:09.178Z,61.00
2022-12-06T01:26:39.127Z,61.20
2022-12-06T01:29:08.923Z,61.10
2022-12-06T01:31:39.430Z,61.00
2022-12-06T01:34:11.120Z,60.70
2022-12-06T01:36:41.066Z,60.70
2022-12-06T01:39:11.535Z,60.90
2022-12-06T01:41:42.119Z,60.20
2022-12-06T01:44:48.823Z,60.20
2022-12-06T01:47:42.002Z,60.50
2022-12-06T01:50:16.625Z,60.30
2022-12-06T01:52:59.227Z,60.50
2022-12-06T01:55:30.417Z,60.10
2022-12-06T01:58:02.614Z,59.80
2022-12-06T02:00:32.150Z,60.00
2022-12-06T02:03:02.229Z,60.30
2022-12-06T02:05:37.494Z,60.00
2022-12-06T02:08:10.763Z,60.30
2022-12-06T02:10:40.386Z,60.00
2022-12-06T02:13:10.254Z,59.80
2022-12-06T02:15:55.823Z,60.10
2022-12-06T02:18:47.034Z,59.90
2022-12-06T02:21:33.497Z,59.80
2022-12-06T02:24:16.651Z,60.20
2022-12-06T02:26:54.022Z,60.00
2022-12-06T02:29:33.006Z,59.60
2022-12-06T02:32:10.030Z,59.70
2022-12-06T02:34:50.194Z,60.70
2022-12-06T02:37:27.718Z,60.70
2022-12-06T02:40:01.071Z,61.20
2022-12-06T02:42:44.251Z,61.90
2022-12-06T02:45:20.364Z,61.80
2022-12-06T02:47:50.258Z,61.60
2022-12-06T02:50:22.444Z,61.90
2022-12-06T02:52:53.405Z,61.90
2022-12-06T02:55:24.122Z,61.90
2022-12-06T02:57:55.469Z,61.80
2022-12-06T03:00:41.522Z,61.50
2022-12-06T03:03:44.025Z,61.30
2022-12-06T03:06:46.883Z,60.80
2022-12-06T03:09:45.260Z,60.90
2022-12-06T03:12:29.718Z,60.50
2022-12-06T03:15:14.909Z,61.40
2022-12-06T03:18:07.063Z,60.10
2022-12-06T03:20:43.471Z,61.10
2022-12-06T03:23:22.974Z,60.60
2022-12-06T03:25:53.363Z,60.50
2022-12-06T03:28:24.024Z,60.00
2022-12-06T03:30:54.564Z,60.40
2022-12-06T03:33:28.487Z,60.30
2022-12-06T03:35:58.531Z,60.80
2022-12-06T03:38:37.981Z,60.80
2022-12-06T03:41:09.334Z,60.60
2022-12-06T03:43:39.456Z,60.90
2022-12-06T03:46:21.179Z,60.80
2022-12-06T03:49:34.571Z,60.80
2022-12-06T03:52:04.735Z,60.50
2022-12-06T03:54:34.756Z,60.80
2022-12-06T03:57:06.184Z,60.60
2022-12-06T03:59:36.148Z,60.20
2022-12-06T04:02:06.263Z,60.00
2022-12-06T04:04:36.369Z,60.30
2022-12-06T04:07:06.333Z,60.20
2022-12-06T04:09:56.880Z,60.10
2022-12-06T04:12:47.458Z,60.20
2022-12-06T04:15:17.259Z,60.30
2022-12-06T04:18:07.680Z,59.90
2022-12-06T04:20:59.291Z,59.90
2022-12-06T04:23:29.726Z,60.10
2022-12-06T04:25:59.888Z,60.20
2022-12-06T04:28:47.573Z,60.30
2022-12-06T04:31:35.756Z,60.10
2022-12-06T04:34:24.084Z,59.50
2022-12-06T04:37:12.066Z,59.90
2022-12-06T04:39:41.775Z,60.10
2022-12-06T04:42:29.748Z,59.30
2022-12-06T04:44:59.165Z,52.80
2022-12-06T04:47:29.180Z,50.00
2022-12-06T04:49:58.984Z,49.60
2022-12-06T04:52:35.629Z,48.60
2022-12-06T04:55:06.716Z,48.60
2022-12-06T04:57:36.184Z,48.00
2022-12-06T05:00:08.319Z,48.10
2022-12-06T05:02:38.601Z,48.50
2022-12-06T05:05:08.986Z,47.90
2022-12-06T05:07:39.644Z,48.00
2022-12-06T05:10:10.209Z,47.10
2022-12-06T05:12:40.247Z,47.20
2022-12-06T05:15:10.225Z,47.10
2022-12-06T05:17:39.896Z,47.70
2022-12-06T05:20:09.743Z,47.70
2022-12-06T05:22:39.336Z,48.00
2022-12-06T05:25:09.150Z,48.30
2022-12-06T05:27:38.559Z,47.40
2022-12-06T05:30:09.159Z,48.10
2022-12-06T05:32:41.239Z,47.90
2022-12-06T05:35:11.354Z,48.30
2022-12-06T05:37:41.355Z,48.30
2022-12-06T05:40:11.599Z,48.40
2022-12-06T05:42:43.067Z,47.30
2022-12-06T05:45:13.363Z,45.90
2022-12-06T05:47:45.185Z,46.00
2022-12-06T05:50:15.195Z,45.30
2022-12-06T05:52:45.598Z,45.10
2022-12-06T05:55:15.595Z,44.80
2022-12-06T05:57:47.385Z,44.50
2022-12-06T06:00:18.696Z,44.80
2022-12-06T06:02:49.912Z,44.20
2022-12-06T06:05:20.524Z,44.60
2022-12-06T06:07:51.012Z,44.50
2022-12-06T06:10:20.899Z,44.40
2022-12-06T06:12:50.932Z,45.70
2022-12-06T06:15:20.950Z,45.70
2022-12-06T06:17:50.836Z,46.70
2022-12-06T06:20:20.484Z,47.40
2022-12-06T06:22:49.981Z,46.80
2022-12-06T06:25:19.931Z,48.60
2022-12-06T06:27:49.535Z,49.40
2022-12-06T06:30:19.993Z,47.90
2022-12-06T06:32:49.922Z,50.40
2022-12-06T06:35:19.564Z,49.50
2022-12-06T06:37:49.529Z,50.00
2022-12-06T06:40:19.363Z,48.60
2022-12-06T06:42:49.523Z,47.80
2022-12-06T06:45:21.558Z,46.50
2022-12-06T06:47:55.136Z,48.00
2022-12-06T06:50:24.660Z,47.70
2022-12-06T06:52:55.320Z,48.00
2022-12-06T06:55:25.587Z,47.10
2022-12-06T06:57:55.263Z,45.90
2022-12-06T07:00:25.890Z,44.30
2022-12-06T07:02:56.359Z,45.70
2022-12-06T07:05:28.918Z,45.60
2022-12-06T07:07:59.224Z,46.00
2022-12-06T07:10:29.279Z,45.70
2022-12-06T07:12:59.595Z,46.10
2022-12-06T07:15:29.448Z,46.20
2022-12-06T07:17:58.902Z,46.60
2022-12-06T07:20:28.525Z,46.20
2022-12-06T07:22:58.137Z,46.50
2022-12-06T07:25:28.043Z,46.30
2022-12-06T07:27:57.762Z,46.70
2022-12-06T07:30:28.417Z,46.10
2022-12-06T07:32:58.646Z,46.00
2022-12-06T07:35:48.482Z,46.70
2022-12-06T07:38:19.039Z,45.70
2022-12-06T07:41:04.113Z,46.00
2022-12-06T07:43:53.904Z,45.70
2022-12-06T07:46:24.198Z,46.10
2022-12-06T07:48:56.099Z,46.30
2022-12-06T07:51:26.288Z,46.50
2022-12-06T07:53:57.747Z,46.30
2022-12-06T07:56:27.544Z,46.70
2022-12-06T07:58:57.409Z,46.60
2022-12-06T08:01:27.183Z,47.00
2022-12-06T08:03:57.488Z,47.00
2022-12-06T08:06:27.105Z,46.60
2022-12-06T08:08:56.991Z,46.30
2022-12-06T08:11:27.178Z,44.50
2022-12-06T08:13:57.223Z,44.70
2022-12-06T08:16:26.997Z,44.30
2022-12-06T08:18:56.867Z,43.20
2022-12-06T08:21:31.088Z,42.50
2022-12-06T08:24:03.062Z,42.50
2022-12-06T08:26:33.158Z,42.50
2022-12-06T08:29:02.955Z,41.50
2022-12-06T08:31:35.402Z,41.00
2022-12-06T08:34:06.611Z,41.00
2022-12-06T08:36:36.659Z,41.70
2022-12-06T08:39:06.852Z,41.10
2022-12-06T08:41:54.730Z,40.70
2022-12-06T08:44:25.156Z,41.20
2022-12-06T08:46:55.441Z,41.60
2022-12-06T08:49:26.192Z,41.30
2022-12-06T08:51:56.517Z,41.50
2022-12-06T08:54:27.103Z,41.60
2022-12-06T08:56:56.761Z,42.00
2022-12-06T08:59:27.259Z,42.00
2022-12-06T09:01:56.921Z,41.90
2022-12-06T09:04:28.628Z,41.80
2022-12-06T09:06:58.360Z,42.60
2022-12-06T09:09:28.688Z,42.40
2022-12-06T09:11:58.472Z,42.50
2022-12-06T09:14:28.660Z,42.50
2022-12-06T09:16:58.727Z,42.80
2022-12-06T09:19:28.608Z,42.90
2022-12-06T09:21:58.532Z,42.80
2022-12-06T09:24:28.603Z,42.70
2022-12-06T09:26:58.757Z,42.80
2022-12-06T09:29:29.115Z,42.70
2022-12-06T09:31:58.743Z,43.20
2022-12-06T09:34:28.918Z,43.10
2022-12-06T09:37:04.791Z,43.40
2022-12-06T09:39:40.890Z,43.30
2022-12-06T09:42:27.638Z,43.30
2022-12-06T09:45:06.488Z,43.40
2022-12-06T09:47:53.807Z,43.50
2022-12-06T09:50:23.021Z,43.50
2022-12-06T09:53:19.740Z,43.60
2022-12-06T09:56:10.924Z,43.80
2022-12-06T09:58:54.097Z,43.90
2022-12-06T10:01:46.055Z,44.20
2022-12-06T10:04:17.805Z,44.40
2022-12-06T10:07:26.082Z,44.30
2022-12-06T10:10:19.612Z,44.50
2022-12-06T10:12:48.272Z,44.50
2022-12-06T10:15:21.452Z,44.50
2022-12-06T10:18:21.714Z,44.60
2022-12-06T10:21:00.656Z,44.70
2022-12-06T10:23:47.747Z,44.90
2022-12-06T10:26:18.608Z,45.40
2022-12-06T10:29:11.516Z,45.40
2022-12-06T10:31:56.152Z,45.20
2022-12-06T10:34:37.752Z,45.20
2022-12-06T10:37:31.883Z,45.50
2022-12-06T10:40:17.795Z,45.30
2022-12-06T10:42:54.076Z,45.00
2022-12-06T10:46:08.673Z,45.40
2022-12-06T10:48:54.068Z,45.50
2022-12-06T10:51:31.692Z,45.30
2022-12-06T10:54:04.663Z,45.30
2022-12-06T10:56:35.708Z,45.60
2022-12-06T10:59:16.278Z,45.30
2022-12-06T11:01:45.350Z,45.20
2022-12-06T11:04:30.192Z,45.20
2022-12-06T11:07:48.169Z,45.20
2022-12-06T11:10:26.195Z,45.40
2022-12-06T11:13:21.599Z,45.40
2022-12-06T11:16:31.130Z,46.00
2022-12-06T11:19:21.967Z,45.50
2022-12-06T11:22:04.313Z,45.20
2022-12-06T11:24:39.820Z,45.40
2022-12-06T11:27:11.237Z,45.00
2022-12-06T11:29:40.668Z,45.70
2022-12-06T11:32:10.003Z,45.50
2022-12-06T11:34:50.006Z,45.60
2022-12-06T11:37:21.458Z,45.10
2022-12-06T11:39:52.948Z,44.70
2022-12-06T11:42:26.667Z,45.10
2022-12-06T11:45:02.027Z,45.00
2022-12-06T11:47:31.486Z,45.10
2022-12-06T11:50:05.859Z,44.50
2022-12-06T11:52:43.551Z,43.00
2022-12-06T11:55:20.659Z,42.50
2022-12-06T11:58:08.675Z,42.30
2022-12-06T12:00:37.770Z,42.10
2022-12-06T12:03:07.046Z,41.80
2022-12-06T12:05:37.908Z,41.80
2022-12-06T12:08:28.483Z,41.80
2022-12-06T12:11:02.448Z,41.80
2022-12-06T12:13:46.850Z,41.90
2022-12-06T12:16:31.547Z,41.70
2022-12-06T12:19:37.455Z,41.70
2022-12-06T12:22:43.051Z,41.60
2022-12-06T12:25:32.092Z,41.60
2022-12-06T12:28:02.977Z,41.70
2022-12-06T12:30:39.473Z,41.80
2022-12-06T12:33:08.681Z,41.50
2022-12-06T12:35:46.278Z,41.50
2022-12-06T12:38:37.754Z,41.20
2022-12-06T12:41:27.748Z,41.30
2022-12-06T12:44:37.048Z,41.60
2022-12-06T12:47:01.784Z,41.60
2022-12-06T12:49:36.282Z,41.30
2022-12-06T12:52:27.927Z,41.00
2022-12-06T12:55:16.310Z,41.20
2022-12-06T12:57:47.620Z,41.10
2022-12-06T13:00:18.726Z,41.10
2022-12-06T13:03:42.780Z,41.30
2022-12-06T13:06:35.624Z,41.10
2022-12-06T13:09:05.658Z,41.00
2022-12-06T13:11:39.416Z,41.10
2022-12-06T13:14:10.922Z,41.10
2022-12-06T13:16:40.242Z,40.70
2022-12-06T13:19:10.482Z,40.70
2022-12-06T13:21:46.016Z,40.40
2022-12-06T13:24:26.817Z,40.60
2022-12-06T13:27:04.631Z,40.80
2022-12-06T13:29:52.665Z,40.30
2022-12-06T13:32:58.336Z,40.50
2022-12-06T13:35:31.010Z,40.40
2022-12-06T13:38:03.680Z,40.30
2022-12-06T13:40:41.047Z,40.20
2022-12-06T13:43:24.793Z,40.40
2022-12-06T13:46:15.934Z,40.40
2022-12-06T13:48:52.567Z,40.10
2022-12-06T13:51:33.455Z,40.20
2022-12-06T13:54:05.422Z,40.10
2022-12-06T13:56:34.230Z,40.20
2022-12-06T13:59:06.801Z,40.20
2022-12-06T14:01:54.227Z,40.00
2022-12-06T14:07:01.194Z,39.90
2022-12-06T14:09:50.372Z,40.00
2022-12-06T14:12:23.749Z,39.80
2022-12-06T14:15:00.201Z,40.00
2022-12-06T14:18:12.532Z,40.10
2022-12-06T14:20:38.733Z,39.90
2022-12-06T14:23:25.605Z,39.70
2022-12-06T14:26:15.672Z,39.80
2022-12-06T14:28:44.765Z,39.50
2022-12-06T14:31:28.129Z,39.60
2022-12-06T14:33:57.503Z,39.80
2022-12-06T14:36:31.775Z,39.70
2022-12-06T14:39:09.134Z,39.40
2022-12-06T14:41:57.484Z,40.40
2022-12-06T14:44:31.761Z,39.60
2022-12-06T14:47:00.824Z,39.70
2022-12-06T14:49:48.509Z,40.10
2022-12-06T14:52:37.655Z,39.80
2022-12-06T14:55:18.649Z,39.60
2022-12-06T14:57:52.438Z,39.40
2022-12-06T15:00:28.016Z,39.50
2022-12-06T15:03:03.975Z,39.30
2022-12-06T15:05:38.509Z,39.50
2022-12-06T15:08:29.084Z,39.30
2022-12-06T15:11:01.485Z,39.50
2022-12-06T15:13:31.068Z,39.60
2022-12-06T15:16:12.818Z,39.90
2022-12-06T15:18:55.975Z,40.20
2022-12-06T15:21:25.205Z,40.10
2022-12-06T15:23:55.613Z,40.30
2022-12-06T15:26:25.435Z,40.10
2022-12-06T15:28:54.552Z,40.30
2022-12-06T15:31:30.543Z,40.20
2022-12-06T15:33:59.510Z,40.50
2022-12-06T15:36:36.192Z,40.40
2022-12-06T15:39:05.177Z,40.30
2022-12-06T15:41:34.350Z,40.20
2022-12-06T15:44:03.704Z,40.10
2022-12-06T15:46:37.086Z,40.30
2022-12-06T15:49:05.910Z,40.20
2022-12-06T15:51:34.615Z,40.40
2022-12-06T15:54:06.277Z,40.00
2022-12-06T15:56:35.658Z,40.00
2022-12-06T15:59:05.039Z,40.00
2022-12-06T16:01:45.090Z,40.00
2022-12-06T16:04:15.872Z,40.10
2022-12-06T16:06:45.194Z,40.00
2022-12-06T16:09:15.667Z,40.20
2022-12-06T16:11:44.617Z,40.00
2022-12-06T16:14:13.652Z,40.10
2022-12-06T16:16:43.663Z,40.00
2022-12-06T16:19:13.368Z,39.90
2022-12-06T16:21:55.740Z,39.80
2022-12-06T16:24:25.262Z,39.90
2022-12-06T16:26:54.823Z,40.00
2022-12-06T16:29:25.449Z,39.90
2022-12-06T16:31:55.045Z,40.00
2022-12-06T16:34:24.377Z,40.00
2022-12-06T16:37:11.710Z,39.80
2022-12-06T16:39:40.538Z,39.80
2022-12-06T16:42:09.415Z,39.90
2022-12-06T16:44:51.596Z,39.70
2022-12-06T16:49:49.574Z,39.70
2022-12-06T16:52:19.012Z,39.40
2022-12-06T16:54:48.705Z,39.70
2022-12-06T16:57:20.039Z,39.40
2022-12-06T16:59:49.294Z,39.50
2022-12-06T17:02:30.127Z,39.30
2022-12-06T17:05:02.170Z,39.70
2022-12-06T17:07:31.483Z,39.60
2022-12-06T17:10:01.335Z,39.50
2022-12-06T17:12:30.266Z,39.50
2022-12-06T17:15:01.061Z,39.50
2022-12-06T17:17:30.764Z,39.40
2022-12-06T17:19:59.613Z,39.40
2022-12-06T17:22:28.838Z,39.40
2022-12-06T17:24:58.119Z,39.40
2022-12-06T17:27:26.910Z,39.50
2022-12-06T17:29:56.070Z,39.40
2022-12-06T17:32:25.387Z,39.40
2022-12-06T17:34:54.258Z,39.50
2022-12-06T17:37:23.402Z,39.40
2022-12-06T17:39:52.183Z,39.30
2022-12-06T17:42:39.403Z,39.50
2022-12-06T17:45:09.753Z,39.20
2022-12-06T17:47:39.091Z,39.30
2022-12-06T17:50:08.650Z,39.30
2022-12-06T17:52:37.331Z,38.90
2022-12-06T17:55:06.771Z,39.20
2022-12-06T17:57:36.124Z,39.80
2022-12-06T18:00:05.647Z,39.10
2022-12-06T18:02:35.597Z,39.10
2022-12-06T18:05:05.147Z,39.10
2022-12-06T18:07:34.428Z,39.00
2022-12-06T18:10:03.139Z,39.00
2022-12-06T18:12:33.744Z,38.90
2022-12-06T18:15:05.217Z,38.90
2022-12-06T18:17:34.041Z,38.90
2022-12-06T18:20:03.016Z,39.10
2022-12-06T18:22:31.758Z,39.10
2022-12-06T18:25:01.117Z,38.70
2022-12-06T18:27:30.695Z,38.90
2022-12-06T18:29:59.895Z,39.00
2022-12-06T18:32:29.318Z,39.00
2022-12-06T18:34:58.424Z,38.80
2022-12-06T18:37:27.788Z,38.60
2022-12-06T18:39:56.612Z,38.80
2022-12-06T18:42:25.841Z,38.90
2022-12-06T18:44:58.341Z,39.00
2022-12-06T18:47:28.202Z,38.90
2022-12-06T18:49:57.616Z,38.90
2022-12-06T18:52:26.932Z,38.50
2022-12-06T18:54:56.275Z,38.60
2022-12-06T18:57:30.524Z,38.60
2022-12-06T19:00:02.729Z,38.80
2022-12-06T19:02:32.656Z,38.60
2022-12-06T19:05:02.738Z,38.50
2022-12-06T19:07:32.014Z,38.60
2022-12-06T19:10:01.487Z,38.60
2022-12-06T19:12:30.564Z,38.30
2022-12-06T19:14:59.711Z,38.60
2022-12-06T19:17:28.529Z,38.60
2022-12-06T19:19:57.715Z,38.60
2022-12-06T19:22:26.794Z,38.60
2022-12-06T19:24:55.447Z,38.40
2022-12-06T19:27:24.145Z,38.30
2022-12-06T19:29:53.268Z,38.50
2022-12-06T19:32:22.532Z,38.00
2022-12-06T19:34:51.462Z,38.20
2022-12-06T19:37:20.193Z,38.40
2022-12-06T19:39:49.421Z,38.50
2022-12-06T19:42:37.163Z,38.40
2022-12-06T19:45:06.813Z,38.40
2022-12-06T19:47:35.520Z,38.30
2022-12-06T19:50:04.884Z,38.20
2022-12-06T19:52:33.756Z,38.30
2022-12-06T19:55:02.975Z,38.50
2022-12-06T19:57:31.733Z,38.20
2022-12-06T20:00:01.117Z,38.40
2022-12-06T20:02:31.516Z,38.50
2022-12-06T20:05:00.459Z,38.10
2022-12-06T20:07:29.327Z,39.00
2022-12-06T20:09:58.634Z,38.50
2022-12-06T20:12:28.013Z,38.40
2022-12-06T20:14:57.306Z,38.10
2022-12-06T20:17:26.127Z,38.10
2022-12-06T20:19:55.039Z,38.10
2022-12-06T20:22:24.274Z,38.00
2022-12-06T20:24:53.178Z,38.10
2022-12-06T20:27:42.216Z,38.20
2022-12-06T20:30:11.872Z,38.20
2022-12-06T20:32:41.100Z,38.10
2022-12-06T20:35:10.153Z,37.80
2022-12-06T20:37:38.911Z,37.80
2022-12-06T20:40:09.029Z,38.00
2022-12-06T20:42:37.972Z,37.70
2022-12-06T20:45:07.143Z,37.80
2022-12-06T20:47:36.308Z,37.80
2022-12-06T20:50:06.012Z,37.80
2022-12-06T20:52:34.862Z,37.80
2022-12-06T20:55:03.545Z,37.90
2022-12-06T20:57:32.241Z,37.80
2022-12-06T21:00:06.747Z,37.60
2022-12-06T21:02:37.734Z,37.40
2022-12-06T21:05:06.912Z,37.40
2022-12-06T21:07:36.310Z,37.60
2022-12-06T21:10:06.321Z,37.50
2022-12-06T21:12:35.563Z,37.60
2022-12-06T21:15:04.527Z,37.90
2022-12-06T21:17:34.448Z,37.70
2022-12-06T21:20:03.371Z,37.60
2022-12-06T21:22:32.813Z,37.60
2022-12-06T21:25:02.095Z,37.60
2022-12-06T21:27:30.950Z,37.90
2022-12-06T21:30:00.412Z,37.60
2022-12-06T21:32:29.578Z,37.60
2022-12-06T21:34:58.772Z,37.70
2022-12-06T21:37:27.851Z,37.50
2022-12-06T21:39:56.554Z,37.70
2022-12-06T21:42:25.778Z,37.60
2022-12-06T21:44:54.628Z,37.40
2022-12-06T21:47:23.384Z,37.50
2022-12-06T21:49:52.516Z,37.60
2022-12-06T21:52:21.831Z,37.50
2022-12-06T21:54:51.156Z,37.70
2022-12-06T21:57:19.941Z,37.70
2022-12-06T21:59:48.862Z,37.60
2022-12-06T22:02:19.721Z,37.80
2022-12-06T22:04:48.625Z,37.40
2022-12-06T22:07:17.774Z,37.50
2022-12-06T22:09:46.794Z,37.40
2022-12-06T22:12:16.372Z,37.30
2022-12-06T22:14:45.718Z,37.20
2022-12-06T22:17:14.591Z,37.10
2022-12-06T22:19:43.736Z,37.20
2022-12-06T22:22:12.924Z,37.30
2022-12-06T22:24:42.089Z,37.20
2022-12-06T22:27:10.938Z,36.90
2022-12-06T22:29:40.119Z,37.10
2022-12-06T22:32:09.164Z,37.00
2022-12-06T22:34:38.026Z,37.00
2022-12-06T22:37:07.182Z,37.00
2022-12-06T22:39:35.970Z,37.30
2022-12-06T22:42:04.753Z,37.40
2022-12-06T22:44:33.621Z,37.20
2022-12-06T22:47:02.439Z,37.70
2022-12-06T22:49:31.385Z,37.10
2022-12-06T22:52:00.101Z,37.30
2022-12-06T22:54:28.782Z,37.10
2022-12-06T22:56:57.539Z,37.30
2022-12-06T22:59:26.712Z,37.20
2022-12-06T23:01:55.502Z,37.30
2022-12-06T23:04:24.304Z,37.30
2022-12-06T23:06:53.298Z,37.00
2022-12-06T23:09:22.287Z,37.10
2022-12-06T23:11:51.609Z,37.00
2022-12-06T23:14:20.935Z,37.00
2022-12-06T23:16:50.223Z,37.00
2022-12-06T23:19:19.089Z,37.20
2022-12-06T23:21:48.515Z,37.10
2022-12-06T23:24:17.787Z,37.20
2022-12-06T23:26:51.818Z,36.70
2022-12-06T23:29:24.131Z,37.30
2022-12-06T23:31:53.091Z,37.00
2022-12-06T23:34:24.252Z,36.90
2022-12-06T23:36:53.377Z,37.00
2022-12-06T23:39:22.667Z,36.90
2022-12-06T23:41:51.431Z,37.20
2022-12-06T23:44:20.605Z,36.90
2022-12-06T23:46:49.813Z,36.90
2022-12-06T23:49:20.234Z,36.90
2022-12-06T23:51:49.640Z,37.00
2022-12-06T23:54:19.201Z,36.90
2022-12-06T23:56:48.501Z,36.80
2022-12-06T23:59:17.976Z,36.80
